Centennial, Colorado
Current Conditions -  °F | °C
As of 11:58 AM on Thursday 23 Oct 2014 (Local Time) from KBKF Reporting Station
Scattered Clouds Scattered Clouds  
Wind Chill: 68°   Ceiling: Unl
Heat Index: 68°   Visibility: 10mi
Dew Point: 28°   Wind: 7mph
Humidity: 23%   Direction: 240°WSW
Pressure: 30.18"   Gusts: NA
Location:  39.6608°N, 104.835°W
Report Text: KBKF 231758Z 24006KT 10SM SCT110 SCT220 20/M02 A3018 RMK AO2A SLP168 T02011020 10201 20059 58008
Loading
Personal Weather Stations






























Interactive Weather Map
Tropical Storm Tracking
New forecast layout! Learn more

10-Day Weather Forecast

Advertisements
Track Severe Weather on mobile